createdAt,value
2022-08-05T00:00:56.198Z,96093.31
2022-08-05T00:03:45.218Z,96089.56
2022-08-05T00:06:28.962Z,96083.94
2022-08-05T00:09:00.100Z,96084.91
2022-08-05T00:11:30.335Z,96086.91
2022-08-05T00:14:12.955Z,96080.41
2022-08-05T00:16:52.466Z,96080.25
2022-08-05T00:19:33.432Z,96073.78
2022-08-05T00:22:11.495Z,96079.63
2022-08-05T00:24:42.384Z,96078.72
2022-08-05T00:27:16.598Z,96079.91
2022-08-05T00:29:43.685Z,96078.81
2022-08-05T00:32:15.509Z,96080.09
2022-08-05T00:35:05.728Z,96077.03
2022-08-05T00:37:51.394Z,96081.56
2022-08-05T00:40:27.286Z,96081.44
2022-08-05T00:43:02.684Z,96085.28
2022-08-05T00:45:42.944Z,96089.69
2022-08-05T00:48:14.196Z,96089.69
2022-08-05T00:50:44.172Z,96092.41
2022-08-05T00:54:01.430Z,96093.72
2022-08-05T00:56:08.489Z,96088.84
2022-08-05T00:58:38.771Z,96092.50
2022-08-05T01:01:09.624Z,96086.03
2022-08-05T01:03:38.269Z,96076.81
2022-08-05T01:06:05.741Z,96087.38
2022-08-05T01:08:43.437Z,96081.59
2022-08-05T01:11:13.556Z,96083.84
2022-08-05T01:13:57.704Z,96075.50
2022-08-05T01:16:27.893Z,96074.38
2022-08-05T01:18:56.761Z,96072.91
2022-08-05T01:21:25.434Z,96080.00
2022-08-05T01:24:13.152Z,96068.94
2022-08-05T01:26:41.311Z,96074.38
2022-08-05T01:29:08.797Z,96074.75
2022-08-05T01:31:44.805Z,96069.50
2022-08-05T01:34:12.991Z,96074.44
2022-08-05T01:36:48.189Z,96068.66
2022-08-05T01:39:36.846Z,96062.91
2022-08-05T01:42:09.607Z,96067.47
2022-08-05T01:44:36.619Z,96064.56
2022-08-05T01:47:05.132Z,96062.50
2022-08-05T01:50:00.343Z,96065.56
2022-08-05T01:52:25.106Z,96070.78
2022-08-05T01:54:51.998Z,96073.34
2022-08-05T01:58:18.880Z,96060.66
2022-08-05T02:00:11.565Z,96068.09
2022-08-05T02:02:39.282Z,96054.69
2022-08-05T02:05:18.747Z,96057.22
2022-08-05T02:08:00.352Z,96063.75
2022-08-05T02:10:32.221Z,96072.69
2022-08-05T02:13:15.748Z,96067.06
2022-08-05T02:15:50.356Z,96065.75
2022-08-05T02:18:32.234Z,96056.88
2022-08-05T02:21:03.794Z,96060.22
2022-08-05T02:23:51.799Z,96053.50
2022-08-05T02:26:28.517Z,96059.00
2022-08-05T02:28:58.229Z,96063.72
2022-08-05T02:31:34.621Z,96067.16
2022-08-05T02:34:02.819Z,96067.31
2022-08-05T02:39:09.821Z,96073.13
2022-08-05T02:41:57.455Z,96068.22
2022-08-05T02:44:26.339Z,96069.13
2022-08-05T02:47:00.280Z,96071.88
2022-08-05T02:49:36.879Z,96074.41
2022-08-05T02:52:05.147Z,96070.97
2022-08-05T02:54:36.019Z,96073.69
2022-08-05T02:57:05.138Z,96073.91
2022-08-05T02:59:50.310Z,96080.66
2022-08-05T03:02:17.375Z,96071.66
2022-08-05T03:04:44.610Z,96075.78
2022-08-05T03:07:24.624Z,96078.66
2022-08-05T03:09:58.792Z,96078.94
2022-08-05T03:12:28.518Z,96071.75
2022-08-05T03:14:55.440Z,96075.91
2022-08-05T03:17:27.319Z,96065.56
2022-08-05T03:19:58.602Z,96070.66
2022-08-05T03:22:32.833Z,96071.56
2022-08-05T03:25:31.560Z,96079.53
2022-08-05T03:28:00.141Z,96070.28
2022-08-05T03:30:30.266Z,96072.50
2022-08-05T03:33:00.908Z,96071.78
2022-08-05T03:35:27.939Z,96062.31
2022-08-05T03:37:54.677Z,96063.78
2022-08-05T03:40:24.077Z,96067.78
2022-08-05T03:42:51.670Z,96061.63
2022-08-05T03:45:21.661Z,96065.38
2022-08-05T03:47:49.846Z,96069.22
2022-08-05T03:50:16.633Z,96066.28
2022-08-05T03:55:00.126Z,96072.13
2022-08-05T03:56:01.680Z,96071.59
2022-08-05T03:58:16.348Z,96069.44
2022-08-05T04:00:44.304Z,96068.31
2022-08-05T04:03:28.280Z,96068.69
2022-08-05T04:05:55.851Z,96068.69
2022-08-05T04:08:34.689Z,96071.94
2022-08-05T04:11:02.821Z,96067.06
2022-08-05T04:13:53.596Z,96067.59
2022-08-05T04:16:24.085Z,96065.06
2022-08-05T04:18:54.400Z,96073.94
2022-08-05T04:22:09.849Z,96074.31
2022-08-05T04:24:08.923Z,96068.50
2022-08-05T04:26:36.169Z,96079.75
2022-08-05T04:29:07.227Z,96072.84
2022-08-05T04:31:38.469Z,96072.50
2022-08-05T04:34:31.897Z,96074.28
2022-08-05T04:36:57.993Z,96075.38
2022-08-05T04:39:24.719Z,96078.66
2022-08-05T04:41:54.429Z,96079.38
2022-08-05T04:44:30.701Z,96077.91
2022-08-05T04:47:09.561Z,96078.66
2022-08-05T04:49:39.147Z,96086.63
2022-08-05T04:52:27.696Z,96101.81
2022-08-05T04:54:57.419Z,96103.81
2022-08-05T04:57:29.120Z,96098.19
2022-08-05T04:59:59.017Z,96104.63
2022-08-05T05:02:37.136Z,96111.94
2022-08-05T05:05:26.296Z,96110.31
2022-08-05T05:07:56.659Z,96108.66
2022-08-05T05:10:29.583Z,96106.16
2022-08-05T05:12:58.846Z,96117.03
2022-08-05T05:15:57.577Z,96106.00
2022-08-05T05:18:12.905Z,96111.44
2022-08-05T05:20:40.895Z,96109.59
2022-08-05T05:23:20.026Z,96113.75
2022-08-05T05:25:47.851Z,96112.88
2022-08-05T05:28:14.486Z,96119.56
2022-08-05T05:30:42.634Z,96121.75
2022-08-05T05:33:17.312Z,96115.22
2022-08-05T05:35:47.001Z,96120.25
2022-08-05T05:38:14.653Z,96118.31
2022-08-05T05:40:51.200Z,96127.81
2022-08-05T05:43:56.615Z,96125.13
2022-08-05T05:46:17.616Z,96124.41
2022-08-05T05:48:45.972Z,96126.88
2022-08-05T05:51:15.581Z,96117.19
2022-08-05T05:53:54.521Z,96128.19
2022-08-05T05:59:10.915Z,96139.81
2022-08-05T06:01:57.175Z,96147.53
2022-08-05T06:04:24.908Z,96140.06
2022-08-05T06:06:51.957Z,96145.75
2022-08-05T06:09:25.944Z,96145.28
2022-08-05T06:12:02.711Z,96142.31
2022-08-05T06:14:34.658Z,96134.94
2022-08-05T06:17:22.301Z,96134.75
2022-08-05T06:19:56.807Z,96141.16
2022-08-05T06:22:26.349Z,96148.22
2022-08-05T06:24:53.292Z,96161.00
2022-08-05T06:27:20.012Z,96155.69
2022-08-05T06:30:17.919Z,96161.06
2022-08-05T06:32:50.552Z,96165.41
2022-08-05T06:36:02.999Z,96156.13
2022-08-05T06:38:07.137Z,96162.94
2022-08-05T06:40:42.023Z,96158.91
2022-08-05T06:43:57.536Z,96157.00
2022-08-05T06:46:06.931Z,96157.06
2022-08-05T06:48:47.451Z,96167.19
2022-08-05T06:51:29.075Z,96163.19
2022-08-05T06:53:57.411Z,96166.66
2022-08-05T06:56:26.262Z,96167.03
2022-08-05T06:58:53.617Z,96171.38
2022-08-05T07:01:32.433Z,96175.22
2022-08-05T07:04:02.282Z,96174.41
2022-08-05T07:06:32.989Z,96172.44
2022-08-05T07:09:09.650Z,96162.13
2022-08-05T07:11:39.873Z,96168.06
2022-08-05T07:14:06.682Z,96179.03
2022-08-05T07:22:18.635Z,96182.34
2022-08-05T07:24:53.714Z,96174.63
2022-08-05T07:27:21.619Z,96182.09
2022-08-05T07:30:24.186Z,96172.50
2022-08-05T07:32:39.031Z,96171.91
2022-08-05T07:36:01.624Z,96179.31
2022-08-05T07:37:53.494Z,96187.06
2022-08-05T07:40:32.251Z,96190.25
2022-08-05T07:43:04.702Z,96187.25
2022-08-05T07:45:43.434Z,96185.38
2022-08-05T07:49:00.446Z,96191.28
2022-08-05T07:51:36.397Z,96195.25
2022-08-05T07:53:59.283Z,96190.97
2022-08-05T07:57:00.586Z,96184.66
2022-08-05T07:59:15.511Z,96192.13
2022-08-05T08:01:52.357Z,96191.69
2022-08-05T08:04:38.137Z,96200.91
2022-08-05T08:07:07.354Z,96187.16
2022-08-05T08:09:35.132Z,96184.00
2022-08-05T08:12:14.330Z,96189.63
2022-08-05T08:14:48.780Z,96196.25
2022-08-05T08:17:18.522Z,96193.81
2022-08-05T08:20:43.862Z,96190.66
2022-08-05T08:22:38.985Z,96195.78
2022-08-05T08:25:16.155Z,96195.94
2022-08-05T08:27:45.069Z,96192.38
2022-08-05T08:30:28.572Z,96199.97
2022-08-05T08:32:56.884Z,96196.38
2022-08-05T08:35:26.764Z,96198.22
2022-08-05T08:37:54.426Z,96203.25
2022-08-05T08:40:23.488Z,96204.53
2022-08-05T08:42:52.752Z,96206.28
2022-08-05T08:45:27.033Z,96212.00
2022-08-05T08:48:12.805Z,96210.44
2022-08-05T08:51:03.960Z,96204.97
2022-08-05T08:53:30.492Z,96205.81
2022-08-05T08:56:05.517Z,96208.41
2022-08-05T08:58:44.015Z,96211.69
2022-08-05T09:01:17.114Z,96211.16
2022-08-05T09:03:45.199Z,96214.25
2022-08-05T09:06:17.226Z,96213.81
2022-08-05T09:08:47.075Z,96207.28
2022-08-05T09:11:15.165Z,96206.41
2022-08-05T09:14:09.277Z,96198.69
2022-08-05T09:16:28.526Z,96196.94
2022-08-05T09:18:56.105Z,96205.91
2022-08-05T09:22:22.751Z,96200.28
2022-08-05T09:26:54.760Z,96203.38
2022-08-05T09:29:30.899Z,96198.78
2022-08-05T09:32:40.851Z,96201.28
2022-08-05T09:34:45.629Z,96202.84
2022-08-05T09:37:15.180Z,96208.38
2022-08-05T09:39:52.274Z,96194.56
2022-08-05T09:42:24.351Z,96198.31
2022-08-05T09:44:56.039Z,96198.78
2022-08-05T09:47:25.674Z,96204.53
2022-08-05T09:50:01.247Z,96204.53
2022-08-05T09:52:32.448Z,96198.94
2022-08-05T09:55:55.018Z,96202.97
2022-08-05T09:57:48.606Z,96200.38
2022-08-05T10:00:19.487Z,96200.78
2022-08-05T10:02:50.233Z,96196.75
2022-08-05T10:05:17.997Z,96186.56
2022-08-05T10:08:36.791Z,96180.78
2022-08-05T10:10:36.279Z,96184.38
2022-08-05T10:13:09.859Z,96181.50
2022-08-05T10:15:39.123Z,96180.72
2022-08-05T10:18:08.052Z,96170.41
2022-08-05T10:20:44.093Z,96174.28
2022-08-05T10:23:34.300Z,96164.91
2022-08-05T10:25:59.508Z,96170.22
2022-08-05T10:28:30.350Z,96161.91
2022-08-05T10:32:47.817Z,96165.66
2022-08-05T10:33:54.054Z,96156.16
2022-08-05T10:36:23.609Z,96152.41
2022-08-05T10:38:53.891Z,96164.22
2022-08-05T10:41:23.634Z,96153.56
2022-08-05T10:43:52.888Z,96155.28
2022-08-05T10:46:24.081Z,96152.41
2022-08-05T10:48:57.276Z,96149.81
2022-08-05T10:51:28.936Z,96140.47
2022-08-05T10:54:01.908Z,96144.50
2022-08-05T10:56:32.641Z,96143.63
2022-08-05T10:59:07.192Z,96140.19
2022-08-05T11:01:55.303Z,96148.22
2022-08-05T11:04:30.911Z,96142.03
2022-08-05T11:06:59.158Z,96138.16
2022-08-05T11:09:39.074Z,96137.00
2022-08-05T11:12:17.189Z,96125.75
2022-08-05T11:15:11.426Z,96129.97
2022-08-05T11:18:09.598Z,96125.16
2022-08-05T11:20:19.108Z,96129.41
2022-08-05T11:22:50.052Z,96124.56
2022-08-05T11:26:04.686Z,96120.69
2022-08-05T11:28:07.911Z,96125.53
2022-08-05T11:30:36.915Z,96118.00
2022-08-05T11:33:13.669Z,96117.59
2022-08-05T11:36:02.799Z,96119.59
2022-08-05T11:38:37.327Z,96120.31
2022-08-05T11:41:54.729Z,96103.91
2022-08-05T11:44:08.391Z,96103.47
2022-08-05T11:47:10.196Z,96099.31
2022-08-05T11:49:34.578Z,96095.28
2022-08-05T11:52:11.421Z,96102.16
2022-08-05T11:54:41.305Z,96092.94
2022-08-05T11:57:24.806Z,96094.19
2022-08-05T11:59:53.003Z,96091.72
2022-08-05T12:02:29.936Z,96092.19
2022-08-05T12:05:00.163Z,96089.84
2022-08-05T12:08:10.445Z,96088.13
2022-08-05T12:10:14.026Z,96087.13
2022-08-05T12:12:58.115Z,96080.28
2022-08-05T12:15:38.050Z,96073.31
2022-08-05T12:18:10.650Z,96068.41
2022-08-05T12:20:42.743Z,96066.78
2022-08-05T12:23:14.229Z,96064.28
2022-08-05T12:25:41.212Z,96074.38
2022-08-05T12:28:08.911Z,96072.19
2022-08-05T12:30:45.860Z,96071.41
2022-08-05T12:33:27.362Z,96066.97
2022-08-05T12:35:55.015Z,96059.53
2022-08-05T12:38:22.293Z,96058.47
2022-08-05T12:40:58.549Z,96050.06
2022-08-05T12:43:27.414Z,96051.81
2022-08-05T12:46:00.806Z,96046.56
2022-08-05T12:48:32.971Z,96044.66
2022-08-05T12:50:59.780Z,96040.25
2022-08-05T12:53:33.033Z,96037.78
2022-08-05T12:56:03.879Z,96035.63
2022-08-05T12:58:49.211Z,96033.66
2022-08-05T13:02:04.060Z,96028.41
2022-08-05T13:04:04.588Z,96022.91
2022-08-05T13:06:34.592Z,96022.59
2022-08-05T13:09:01.221Z,96015.06
2022-08-05T13:12:01.219Z,96012.81
2022-08-05T13:14:15.332Z,96012.50
2022-08-05T13:16:48.566Z,96003.44
2022-08-05T13:19:18.639Z,96001.66
2022-08-05T13:21:47.926Z,96003.91
2022-08-05T13:24:27.559Z,96002.47
2022-08-05T13:27:11.204Z,95993.19
2022-08-05T13:29:59.393Z,95993.19
2022-08-05T13:32:39.396Z,95993.66
2022-08-05T13:35:10.729Z,95989.75
2022-08-05T13:37:38.511Z,95986.50
2022-08-05T13:40:16.337Z,95985.81
2022-08-05T13:42:55.697Z,95984.00
2022-08-05T13:45:33.942Z,95980.56
2022-08-05T13:48:08.753Z,95983.53
2022-08-05T13:50:51.630Z,95979.84
2022-08-05T13:53:20.277Z,95982.25
2022-08-05T13:55:50.121Z,95981.88
2022-08-05T13:58:30.760Z,95987.72
2022-08-05T14:00:58.079Z,95991.91
2022-08-05T14:03:26.594Z,95987.25
2022-08-05T14:06:25.636Z,95988.19
2022-08-05T14:08:42.989Z,95992.72
2022-08-05T14:11:20.175Z,95981.25
2022-08-05T14:13:48.114Z,95983.28
2022-08-05T14:16:19.108Z,95989.97
2022-08-05T14:18:48.220Z,95981.97
2022-08-05T14:22:07.517Z,95978.97
2022-08-05T14:24:03.395Z,95971.31
2022-08-05T14:26:37.039Z,95978.81
2022-08-05T14:29:15.742Z,95976.44
2022-08-05T14:32:02.557Z,95969.00
2022-08-05T14:34:35.061Z,95980.13
2022-08-05T14:37:04.625Z,95975.81
2022-08-05T14:39:49.463Z,95988.13
2022-08-05T14:42:23.511Z,95985.00
2022-08-05T14:44:52.575Z,95983.34
2022-08-05T14:47:58.426Z,95974.88
2022-08-05T14:50:18.293Z,95973.38
2022-08-05T14:52:53.010Z,95977.66
2022-08-05T14:55:24.992Z,95975.03
2022-08-05T14:57:54.771Z,95966.94
2022-08-05T15:00:27.916Z,95963.69
2022-08-05T15:02:58.206Z,95962.66
2022-08-05T15:05:30.042Z,95963.00
2022-08-05T15:08:38.056Z,95960.03
2022-08-05T15:11:01.433Z,95968.31
2022-08-05T15:13:28.613Z,95959.69
2022-08-05T15:16:13.197Z,95963.59
2022-08-05T15:18:43.570Z,95963.66
2022-08-05T15:21:14.209Z,95969.03
2022-08-05T15:23:41.652Z,95959.13
2022-08-05T15:26:08.596Z,95970.25
2022-08-05T15:28:37.718Z,95973.78
2022-08-05T15:31:09.534Z,95979.47
2022-08-05T15:34:04.022Z,95971.75
2022-08-05T15:36:25.868Z,95976.31
2022-08-05T15:40:58.917Z,95977.28
2022-08-05T15:41:55.698Z,95979.91
2022-08-05T15:44:24.384Z,95975.06
2022-08-05T15:46:56.349Z,95969.84
2022-08-05T15:49:53.398Z,95976.06
2022-08-05T15:52:16.214Z,95973.44
2022-08-05T15:54:57.667Z,95982.25
2022-08-05T15:57:26.110Z,95985.66
2022-08-05T16:00:00.423Z,95980.13
2022-08-05T16:02:29.507Z,95974.69
2022-08-05T16:04:56.531Z,95970.13
2022-08-05T16:07:23.381Z,95968.69
2022-08-05T16:09:50.842Z,95975.53
2022-08-05T16:12:25.654Z,95984.69
2022-08-05T16:14:53.404Z,95987.81
2022-08-05T16:17:20.039Z,95991.88
2022-08-05T16:20:04.800Z,95990.06
2022-08-05T16:22:41.121Z,96006.50
2022-08-05T16:25:09.769Z,96020.19
2022-08-05T16:27:59.936Z,96030.13
2022-08-05T16:30:26.244Z,96029.00
2022-08-05T16:32:56.028Z,96039.56
2022-08-05T16:35:24.857Z,96035.19
2022-08-05T16:38:15.303Z,96031.91
2022-08-05T16:40:52.340Z,96032.19
2022-08-05T16:43:29.356Z,96034.81
2022-08-05T16:46:08.137Z,96035.66
2022-08-05T16:48:47.192Z,96038.53
2022-08-05T16:51:17.728Z,96049.19
2022-08-05T16:54:05.615Z,96049.75
2022-08-05T16:56:31.968Z,96062.00
2022-08-05T16:58:58.904Z,96083.38
2022-08-05T17:01:27.723Z,96098.22
2022-08-05T17:04:15.994Z,96107.31
2022-08-05T17:06:45.449Z,96131.84
2022-08-05T17:09:20.196Z,96157.72
2022-08-05T17:11:49.738Z,96153.22
2022-08-05T17:14:22.367Z,96141.59
2022-08-05T17:17:01.676Z,96131.41
2022-08-05T17:19:30.040Z,96165.44
2022-08-05T17:22:00.561Z,96167.41
2022-08-05T17:24:40.344Z,96170.69
2022-08-05T17:27:13.155Z,96191.50
2022-08-05T17:29:47.175Z,96186.28
2022-08-05T17:32:18.996Z,96195.06
2022-08-05T17:37:40.181Z,96246.31
2022-08-05T17:40:14.270Z,96244.72
2022-08-05T17:42:43.138Z,96253.59
2022-08-05T17:45:20.559Z,96251.25
2022-08-05T17:47:53.615Z,96273.47
2022-08-05T17:50:28.952Z,96261.25
2022-08-05T17:52:58.626Z,96263.22
2022-08-05T17:55:34.665Z,96278.56
2022-08-05T17:58:06.932Z,96281.56
2022-08-05T18:03:28.180Z,96278.63
2022-08-05T18:06:04.925Z,96290.03
2022-08-05T18:08:31.640Z,96291.44
2022-08-05T18:11:00.881Z,96306.84
2022-08-05T18:13:36.694Z,96301.78
2022-08-05T18:16:13.558Z,96301.63
2022-08-05T18:18:40.612Z,96293.66
2022-08-05T18:21:13.248Z,96300.53
2022-08-05T18:23:47.165Z,96315.56
2022-08-05T18:26:14.023Z,96317.09
2022-08-05T18:28:44.858Z,96340.59
2022-08-05T18:31:14.941Z,96334.88
2022-08-05T18:33:47.291Z,96336.97
2022-08-05T18:36:19.202Z,96339.84
2022-08-05T18:38:47.075Z,96345.00
2022-08-05T18:41:56.809Z,96351.63
2022-08-05T18:44:06.448Z,96358.63
2022-08-05T18:46:37.105Z,96350.91
2022-08-05T18:49:11.407Z,96366.63
2022-08-05T18:52:05.820Z,96363.56
2022-08-05T18:54:27.618Z,96376.66
2022-08-05T18:56:57.857Z,96375.50
2022-08-05T18:59:43.838Z,96378.38
2022-08-05T19:02:38.035Z,96384.69
2022-08-05T19:06:05.722Z,96396.97
2022-08-05T19:07:53.421Z,96390.66
2022-08-05T19:10:28.243Z,96385.94
2022-08-05T19:12:56.286Z,96394.09
2022-08-05T19:15:58.138Z,96411.34
2022-08-05T19:18:20.624Z,96408.16
2022-08-05T19:27:16.916Z,96440.56
2022-08-05T19:29:57.386Z,96450.66
2022-08-05T19:32:45.614Z,96454.28
2022-08-05T19:35:17.985Z,96455.28
2022-08-05T19:38:06.421Z,96451.41
2022-08-05T19:40:35.758Z,96463.19
2022-08-05T19:43:05.340Z,96460.78
2022-08-05T19:45:36.480Z,96458.94
2022-08-05T19:48:04.046Z,96463.75
2022-08-05T19:50:32.472Z,96459.63
2022-08-05T19:53:10.517Z,96463.28
2022-08-05T19:56:15.399Z,96451.22
2022-08-05T19:58:29.231Z,96446.19
2022-08-05T20:00:58.923Z,96453.97
2022-08-05T20:03:26.089Z,96456.94
2022-08-05T20:05:52.841Z,96464.72
2022-08-05T20:08:24.555Z,96469.47
2022-08-05T20:10:51.301Z,96472.38
2022-08-05T20:13:30.308Z,96479.34
2022-08-05T20:16:05.366Z,96478.94
2022-08-05T20:18:35.094Z,96482.53
2022-08-05T20:21:06.537Z,96496.06
2022-08-05T20:23:42.285Z,96487.09
2022-08-05T20:26:21.217Z,96496.53
2022-08-05T21:00:21.296Z,96539.63
2022-08-05T21:02:43.735Z,96548.16
2022-08-05T21:05:18.856Z,96563.88
2022-08-05T21:07:51.834Z,96563.13
2022-08-05T21:10:19.422Z,96575.72
2022-08-05T21:12:58.075Z,96576.03
2022-08-05T21:15:34.081Z,96581.44
2022-08-05T21:18:00.778Z,96585.09
2022-08-05T21:20:33.300Z,96581.34
2022-08-05T21:23:01.093Z,96578.66
2022-08-05T21:31:24.614Z,96588.63
2022-08-05T21:33:52.026Z,96588.63
2022-08-05T21:36:30.036Z,96594.06
2022-08-05T21:38:59.746Z,96582.28
2022-08-05T21:41:32.861Z,96584.94
2022-08-05T21:44:03.904Z,96578.25
2022-08-05T21:46:32.188Z,96575.09
2022-08-05T21:49:01.568Z,96563.44
2022-08-05T21:52:16.707Z,96561.22
2022-08-05T21:54:15.488Z,96557.59
2022-08-05T21:56:51.376Z,96562.72
2022-08-05T21:59:23.893Z,96555.75
2022-08-05T22:01:54.543Z,96561.34
2022-08-05T22:04:25.234Z,96559.28
2022-08-05T22:09:45.874Z,96559.72
2022-08-05T22:12:20.955Z,96563.88
2022-08-05T22:14:53.364Z,96565.09
2022-08-05T22:17:20.345Z,96565.09
2022-08-05T22:20:00.849Z,96565.72
2022-08-05T22:22:33.815Z,96560.09
2022-08-05T22:25:01.574Z,96555.09
2022-08-05T22:28:09.914Z,96562.38
2022-08-05T22:30:22.419Z,96559.88
2022-08-05T22:32:49.465Z,96561.94
2022-08-05T22:35:16.899Z,96553.72
2022-08-05T22:37:58.753Z,96551.88
2022-08-05T22:40:26.069Z,96552.06
2022-08-05T22:42:53.227Z,96547.91
2022-08-05T22:45:25.307Z,96555.28
2022-08-05T22:47:55.294Z,96557.69
2022-08-05T22:50:26.839Z,96551.97
2022-08-05T22:52:54.764Z,96555.06
2022-08-05T22:55:21.810Z,96558.72
2022-08-05T22:57:48.987Z,96559.69
2022-08-05T23:00:18.214Z,96565.09
2022-08-05T23:02:48.297Z,96557.28
2022-08-05T23:05:17.089Z,96559.25
2022-08-05T23:07:49.494Z,96556.13
2022-08-05T23:10:19.960Z,96556.34
2022-08-05T23:12:47.870Z,96549.00
2022-08-05T23:15:19.139Z,96550.91
2022-08-05T23:18:01.528Z,96545.81
2022-08-05T23:20:29.242Z,96547.28
2022-08-05T23:22:56.590Z,96534.66
2022-08-05T23:25:50.962Z,96543.63
2022-08-05T23:28:12.411Z,96557.09
2022-08-05T23:30:40.086Z,96542.44
2022-08-05T23:33:22.245Z,96544.03
2022-08-05T23:35:55.831Z,96528.38
2022-08-05T23:38:23.011Z,96525.47
2022-08-05T23:40:52.429Z,96528.97
2022-08-05T23:43:25.335Z,96519.53
2022-08-05T23:46:20.369Z,96527.19
2022-08-05T23:49:00.490Z,96530.03
2022-08-05T23:51:28.516Z,96520.84
2022-08-05T23:54:00.952Z,96516.69
2022-08-05T23:56:28.750Z,96525.63
2022-08-05T23:58:58.507Z,96527.59
